Fidato — PB5970 — position and weather

sailwx.info

Track history (hours):
 
Tides and Currents Weather Stations Pressure Air Temp Water Temp Dewpoint Dewpoint Depression Visibility Wind Speed Wind Dir Waves Ship Positions

Fidato

Last reported at 2017-Jul-25 12:30 UTC. Time now 2017-Jul-25 12:43 UTC.
Position N 51°21' E 004°16'.

Length 135 m; draft 2.5 m.

Type: Ship. MMSI: 244670975.

Date/timePositionNaut miles runAvg speedWind from/ knotsBaromVisibWave heightAir tempDewpointWater temp
2017-Jul-25 12:30N 51°21' E 004°16'0 0.2
2017-Jul-25 12:01N 51°20' E 004°16'0 0.0
2017-Jul-25 11:31N 51°20' E 004°16'0 0.0
2017-Jul-25 11:00N 51°20' E 004°16'0 0.4
2017-Jul-25 10:30N 51°20' E 004°16'2 4.6
2017-Jul-25 10:00N 51°18' E 004°16'0 0.0
2017-Jul-25 09:30N 51°18' E 004°16'0 0.0
2017-Jul-25 09:00N 51°18' E 004°16'0 0.1
2017-Jul-25 08:30N 51°18' E 004°16'0 0.3
2017-Jul-25 08:00N 51°18' E 004°16'0 0.9
2017-Jul-25 07:30N 51°18' E 004°15'0 0.0
2017-Jul-25 07:00N 51°18' E 004°15'1 1.4
2017-Jul-25 06:30N 51°18' E 004°16'1 1.7
2017-Jul-25 06:00N 51°18' E 004°18'0 0.0
2017-Jul-25 05:30N 51°18' E 004°18'0 0.0
2017-Jul-25 05:00N 51°18' E 004°18'0 0.0
2017-Jul-25 04:30N 51°18' E 004°18'0 0.0
2017-Jul-25 04:00N 51°18' E 004°18'0 0.0
2017-Jul-25 03:30N 51°18' E 004°18'0 0.0
2017-Jul-25 03:00N 51°18' E 004°18'0 0.0
2017-Jul-25 02:30N 51°18' E 004°18'0 0.0
2017-Jul-25 02:00N 51°18' E 004°18'0 0.0
2017-Jul-25 01:30N 51°18' E 004°18'0 0.0
2017-Jul-25 01:00N 51°18' E 004°18'0 0.0
2017-Jul-25 00:30N 51°18' E 004°18'0 0.0
2017-Jul-25 00:00N 51°18' E 004°18'0 0.0
2017-Jul-24 23:30N 51°18' E 004°18'0 0.0
2017-Jul-24 23:00N 51°18' E 004°18'0 0.0
2017-Jul-24 22:30N 51°18' E 004°18'0 0.0
2017-Jul-24 22:00N 51°18' E 004°18'0 0.0
2017-Jul-24 21:30N 51°18' E 004°18'0 0.0
2017-Jul-24 21:00N 51°18' E 004°18'0 0.0
2017-Jul-24 20:30N 51°18' E 004°18'0 0.0
2017-Jul-24 20:00N 51°18' E 004°18'0 0.0
2017-Jul-24 19:30N 51°18' E 004°18'0 0.0
2017-Jul-24 19:00N 51°18' E 004°18'0 0.0
2017-Jul-24 18:30N 51°18' E 004°18'0 0.0
2017-Jul-24 18:00N 51°18' E 004°18'0 0.0
2017-Jul-24 17:30N 51°18' E 004°18'0 0.0
2017-Jul-24 17:00N 51°18' E 004°18'0 0.0
2017-Jul-24 16:30N 51°18' E 004°18'0 0.0
2017-Jul-24 16:00N 51°18' E 004°18'22 5.1
2017-Jul-24 11:46N 51°40' E 004°21'2 7.8
2017-Jul-24 11:30N 51°41' E 004°23'0 0.9
2017-Jul-24 11:00N 51°41' E 004°24'1 1.3
2017-Jul-24 10:30N 51°41' E 004°25'0 0.5
2017-Jul-24 10:00N 51°42' E 004°25'4 7.8
2017-Jul-24 09:30N 51°42' E 004°31'4 8.6
2017-Jul-24 09:00N 51°43' E 004°38'5 9.3
2017-Jul-24 08:30N 51°45' E 004°44'4 8.4
2017-Jul-24 08:00N 51°48' E 004°50'2 3.8
2017-Jul-24 07:30N 51°49' E 004°53'0 0.9
2017-Jul-24 07:00N 51°49' E 004°53'3 6.3
2017-Jul-24 06:30N 51°50' E 004°58'0 0.1
2017-Jul-24 06:00N 51°49' E 004°58'4 8.0
2017-Jul-24 05:29N 51°50' E 005°05'5 9.0
2017-Jul-24 04:58N 51°49' E 005°12'5 8.7
2017-Jul-24 04:24N 51°48' E 005°20'4 8.8
2017-Jul-24 03:56N 51°51' E 005°25'4 9.0
2017-Jul-24 03:29N 51°53' E 005°31'1 2.8
2017-Jul-24 03:00N 51°54' E 005°32'0 0.0
2017-Jul-24 02:30N 51°54' E 005°32'0 0.0
2017-Jul-24 02:00N 51°54' E 005°32'0 0.0
2017-Jul-24 01:30N 51°54' E 005°32'0 0.0
2017-Jul-24 01:00N 51°54' E 005°32'0 0.0
2017-Jul-24 00:30N 51°54' E 005°32'0 0.0
2017-Jul-24 00:00N 51°54' E 005°32'0 0.0
2017-Jul-23 23:30N 51°54' E 005°32'0 0.0
2017-Jul-23 23:00N 51°54' E 005°32'0 0.0
2017-Jul-23 22:30N 51°54' E 005°32'0 0.0
2017-Jul-23 22:00N 51°54' E 005°32'0 0.0
2017-Jul-23 21:26N 51°54' E 005°32'0 0.0
2017-Jul-23 21:00N 51°54' E 005°32'1 2.8
2017-Jul-23 20:30N 51°54' E 005°35'5 9.6
2017-Jul-23 20:00N 51°54' E 005°42'5 9.5
2017-Jul-23 19:30N 51°52' E 005°50'4 7.7
2017-Jul-23 19:00N 51°52' E 005°56'3 6.5
2017-Jul-23 18:30N 51°53' E 006°01'5 9.1
2017-Jul-23 18:00N 51°51' E 006°08'5 9.3
2017-Jul-23 17:30N 51°50' E 006°15'4 9.0
2017-Jul-23 17:00N 51°46' E 006°20'4 8.2
2017-Jul-23 16:30N 51°44' E 006°25'4 7.8
2017-Jul-23 16:00N 51°41' E 006°28'4 9.0
2017-Jul-23 15:30N 51°40' E 006°35'5 9.0
2017-Jul-23 14:56N 51°34' E 006°36'3 7.9
2017-Jul-23 14:30N 51°34' E 006°41'4 8.2
2017-Jul-23 14:00N 51°30' E 006°43'3 5.9
2017-Jul-23 13:30N 51°27' E 006°43'4 8.5
2017-Jul-23 13:00N 51°23' E 006°43'6 6.3
2017-Jul-23 12:03N 51°17' E 006°42'110.1
2017-Jul-23 12:00N 51°16' E 006°42'3 6.4
2017-Jul-23 11:30N 51°13' E 006°45'3 5.1
2017-Jul-23 11:00N 51°11' E 006°46'3 5.6
2017-Jul-23 10:30N 51°09' E 006°50'13 7.4
2017-Jul-23 08:42N 50°58' E 006°59'2 8.8
2017-Jul-23 08:29N 50°56' E 006°58'4 8.4
2017-Jul-23 07:57N 50°53' E 007°03'  
2017-Jul-17 13:22N 50°42' E 007°10'2 5.0
2017-Jul-17 12:59N 50°43' E 007°08'2 4.6
2017-Jul-17 12:29N 50°45' E 007°06'4 5.0
2017-Jul-17 11:36N 50°48' E 007°02'2 4.6
2017-Jul-17 11:06N 50°50' E 006°59'1 4.8
2017-Jul-17 10:53N 50°51' E 006°59'2 4.9
2017-Jul-17 10:30N 50°52' E 007°01'2 2.9
2017-Jul-17 09:58N 50°54' E 007°02'2 4.4
2017-Jul-17 09:30N 50°54' E 006°59'3 5.2
2017-Jul-17 08:59N 50°57' E 006°58'26 1.8
2017-Jul-16 18:29N 51°21' E 006°40'2 3.7
2017-Jul-16 18:00N 51°22' E 006°41'3 5.0
2017-Jul-16 17:30N 51°24' E 006°45'3 5.3
2017-Jul-16 17:00N 51°26' E 006°43'2 4.4
2017-Jul-16 16:30N 51°28' E 006°42'2 3.1
2017-Jul-16 16:00N 51°30' E 006°43'2 4.0
2017-Jul-16 15:30N 51°32' E 006°41'3 5.1
2017-Jul-16 15:00N 51°34' E 006°41'3 4.7
2017-Jul-16 14:22N 51°34' E 006°36'2 5.6
2017-Jul-16 14:00N 51°36' E 006°36'3 5.2
2017-Jul-16 13:30N 51°39' E 006°36'3 5.3
2017-Jul-16 13:00N 51°40' E 006°32'3 5.2
2017-Jul-16 12:24N 51°41' E 006°28'2 5.4
2017-Jul-16 12:00N 51°43' E 006°25'3 5.0
2017-Jul-16 11:30N 51°45' E 006°25'3 6.2
2017-Jul-16 11:00N 51°46' E 006°20'3 6.3
2017-Jul-16 10:30N 51°49' E 006°18'3 6.4
2017-Jul-16 10:00N 51°50' E 006°13'3 6.0
2017-Jul-16 09:30N 51°51' E 006°08'3 6.5
2017-Jul-16 09:00N 51°52' E 006°04'3 5.4
2017-Jul-16 08:30N 51°52' E 005°59'2 4.6
2017-Jul-16 08:00N 51°52' E 005°55'3 5.8
2017-Jul-16 07:30N 51°51' E 005°51'3 6.5
2017-Jul-16 07:00N 51°53' E 005°47'3 6.4
2017-Jul-16 06:30N 51°54' E 005°42'3 6.4
2017-Jul-16 06:00N 51°54' E 005°37'3 6.4
2017-Jul-16 05:29N 51°53' E 005°31'4 5.9
2017-Jul-16 04:45N 51°51' E 005°25'2 6.6
2017-Jul-16 04:29N 51°50' E 005°24'5 5.0
2017-Jul-16 03:34N 51°49' E 005°16'0 6.8
2017-Jul-16 03:30N 51°49' E 005°16'8 0.9
2017-Jul-15 18:55N 51°49' E 005°03'3 6.8
2017-Jul-15 18:30N 51°49' E 004°59'4 7.2
2017-Jul-15 18:00N 51°49' E 004°53'3 6.9
2017-Jul-15 17:30N 51°49' E 004°47'3 6.9
2017-Jul-15 17:00N 51°49' E 004°42'4 7.4
2017-Jul-15 16:30N 51°48' E 004°36'3 6.4
2017-Jul-15 16:00N 51°50' E 004°32'3 6.9
2017-Jul-15 15:30N 51°50' E 004°26'3 7.0
2017-Jul-15 15:00N 51°51' E 004°21'7 6.8
2017-Jul-15 14:00N 51°55' E 004°11'4 7.1
2017-Jul-15 13:30N 51°56' E 004°06'2 4.4
2017-Jul-15 13:00N 51°56' E 004°02'  
Track history (hours):
 
Tides and Currents Weather Stations Pressure Air Temp Water Temp Dewpoint Dewpoint Depression Visibility Wind Speed Wind Dir Waves Ship Positions

Fidato

Last reported at 2017-Jul-25 12:30 UTC. Time now 2017-Jul-25 12:43 UTC.
Position N 51°21' E 004°16'.

Length 135 m; draft 2.5 m.

Type: Ship. MMSI: 244670975.

Date/timePositionNaut miles runAvg speedWind from/ knotsBaromVisibWave heightAir tempDewpointWater temp
2017-Jul-25 12:30N 51°21' E 004°16'0 0.2
2017-Jul-25 12:01N 51°20' E 004°16'0 0.0
2017-Jul-25 11:31N 51°20' E 004°16'0 0.0
2017-Jul-25 11:00N 51°20' E 004°16'0 0.4
2017-Jul-25 10:30N 51°20' E 004°16'2 4.6
2017-Jul-25 10:00N 51°18' E 004°16'0 0.0
2017-Jul-25 09:30N 51°18' E 004°16'0 0.0
2017-Jul-25 09:00N 51°18' E 004°16'0 0.1
2017-Jul-25 08:30N 51°18' E 004°16'0 0.3
2017-Jul-25 08:00N 51°18' E 004°16'0 0.9
2017-Jul-25 07:30N 51°18' E 004°15'0 0.0
2017-Jul-25 07:00N 51°18' E 004°15'1 1.4
2017-Jul-25 06:30N 51°18' E 004°16'1 1.7
2017-Jul-25 06:00N 51°18' E 004°18'0 0.0
2017-Jul-25 05:30N 51°18' E 004°18'0 0.0
2017-Jul-25 05:00N 51°18' E 004°18'0 0.0
2017-Jul-25 04:30N 51°18' E 004°18'0 0.0
2017-Jul-25 04:00N 51°18' E 004°18'0 0.0
2017-Jul-25 03:30N 51°18' E 004°18'0 0.0
2017-Jul-25 03:00N 51°18' E 004°18'0 0.0
2017-Jul-25 02:30N 51°18' E 004°18'0 0.0
2017-Jul-25 02:00N 51°18' E 004°18'0 0.0
2017-Jul-25 01:30N 51°18' E 004°18'0 0.0
2017-Jul-25 01:00N 51°18' E 004°18'0 0.0
2017-Jul-25 00:30N 51°18' E 004°18'0 0.0
2017-Jul-25 00:00N 51°18' E 004°18'0 0.0
2017-Jul-24 23:30N 51°18' E 004°18'0 0.0
2017-Jul-24 23:00N 51°18' E 004°18'0 0.0
2017-Jul-24 22:30N 51°18' E 004°18'0 0.0
2017-Jul-24 22:00N 51°18' E 004°18'0 0.0
2017-Jul-24 21:30N 51°18' E 004°18'0 0.0
2017-Jul-24 21:00N 51°18' E 004°18'0 0.0
2017-Jul-24 20:30N 51°18' E 004°18'0 0.0
2017-Jul-24 20:00N 51°18' E 004°18'0 0.0
2017-Jul-24 19:30N 51°18' E 004°18'0 0.0
2017-Jul-24 19:00N 51°18' E 004°18'0 0.0
2017-Jul-24 18:30N 51°18' E 004°18'0 0.0
2017-Jul-24 18:00N 51°18' E 004°18'0 0.0
2017-Jul-24 17:30N 51°18' E 004°18'0 0.0
2017-Jul-24 17:00N 51°18' E 004°18'0 0.0
2017-Jul-24 16:30N 51°18' E 004°18'0 0.0
2017-Jul-24 16:00N 51°18' E 004°18'22 5.1
2017-Jul-24 11:46N 51°40' E 004°21'2 7.8
2017-Jul-24 11:30N 51°41' E 004°23'0 0.9
2017-Jul-24 11:00N 51°41' E 004°24'1 1.3
2017-Jul-24 10:30N 51°41' E 004°25'0 0.5
2017-Jul-24 10:00N 51°42' E 004°25'4 7.8
2017-Jul-24 09:30N 51°42' E 004°31'4 8.6
2017-Jul-24 09:00N 51°43' E 004°38'5 9.3
2017-Jul-24 08:30N 51°45' E 004°44'4 8.4
2017-Jul-24 08:00N 51°48' E 004°50'2 3.8
2017-Jul-24 07:30N 51°49' E 004°53'0 0.9
2017-Jul-24 07:00N 51°49' E 004°53'3 6.3
2017-Jul-24 06:30N 51°50' E 004°58'0 0.1
2017-Jul-24 06:00N 51°49' E 004°58'4 8.0
2017-Jul-24 05:29N 51°50' E 005°05'5 9.0
2017-Jul-24 04:58N 51°49' E 005°12'5 8.7
2017-Jul-24 04:24N 51°48' E 005°20'4 8.8
2017-Jul-24 03:56N 51°51' E 005°25'4 9.0
2017-Jul-24 03:29N 51°53' E 005°31'1 2.8
2017-Jul-24 03:00N 51°54' E 005°32'0 0.0
2017-Jul-24 02:30N 51°54' E 005°32'0 0.0
2017-Jul-24 02:00N 51°54' E 005°32'0 0.0
2017-Jul-24 01:30N 51°54' E 005°32'0 0.0
2017-Jul-24 01:00N 51°54' E 005°32'0 0.0
2017-Jul-24 00:30N 51°54' E 005°32'0 0.0
2017-Jul-24 00:00N 51°54' E 005°32'0 0.0
2017-Jul-23 23:30N 51°54' E 005°32'0 0.0
2017-Jul-23 23:00N 51°54' E 005°32'0 0.0
2017-Jul-23 22:30N 51°54' E 005°32'0 0.0
2017-Jul-23 22:00N 51°54' E 005°32'0 0.0
2017-Jul-23 21:26N 51°54' E 005°32'0 0.0
2017-Jul-23 21:00N 51°54' E 005°32'1 2.8
2017-Jul-23 20:30N 51°54' E 005°35'5 9.6
2017-Jul-23 20:00N 51°54' E 005°42'5 9.5
2017-Jul-23 19:30N 51°52' E 005°50'4 7.7
2017-Jul-23 19:00N 51°52' E 005°56'3 6.5
2017-Jul-23 18:30N 51°53' E 006°01'5 9.1
2017-Jul-23 18:00N 51°51' E 006°08'5 9.3
2017-Jul-23 17:30N 51°50' E 006°15'4 9.0
2017-Jul-23 17:00N 51°46' E 006°20'4 8.2
2017-Jul-23 16:30N 51°44' E 006°25'4 7.8
2017-Jul-23 16:00N 51°41' E 006°28'4 9.0
2017-Jul-23 15:30N 51°40' E 006°35'5 9.0
2017-Jul-23 14:56N 51°34' E 006°36'3 7.9
2017-Jul-23 14:30N 51°34' E 006°41'4 8.2
2017-Jul-23 14:00N 51°30' E 006°43'3 5.9
2017-Jul-23 13:30N 51°27' E 006°43'4 8.5
2017-Jul-23 13:00N 51°23' E 006°43'6 6.3
2017-Jul-23 12:03N 51°17' E 006°42'110.1
2017-Jul-23 12:00N 51°16' E 006°42'3 6.4
2017-Jul-23 11:30N 51°13' E 006°45'3 5.1
2017-Jul-23 11:00N 51°11' E 006°46'3 5.6
2017-Jul-23 10:30N 51°09' E 006°50'13 7.4
2017-Jul-23 08:42N 50°58' E 006°59'2 8.8
2017-Jul-23 08:29N 50°56' E 006°58'4 8.4
2017-Jul-23 07:57N 50°53' E 007°03'  
2017-Jul-17 13:22N 50°42' E 007°10'2 5.0
2017-Jul-17 12:59N 50°43' E 007°08'2 4.6
2017-Jul-17 12:29N 50°45' E 007°06'4 5.0
2017-Jul-17 11:36N 50°48' E 007°02'2 4.6
2017-Jul-17 11:06N 50°50' E 006°59'1 4.8
2017-Jul-17 10:53N 50°51' E 006°59'2 4.9
2017-Jul-17 10:30N 50°52' E 007°01'2 2.9
2017-Jul-17 09:58N 50°54' E 007°02'2 4.4
2017-Jul-17 09:30N 50°54' E 006°59'3 5.2
2017-Jul-17 08:59N 50°57' E 006°58'26 1.8
2017-Jul-16 18:29N 51°21' E 006°40'2 3.7
2017-Jul-16 18:00N 51°22' E 006°41'3 5.0
2017-Jul-16 17:30N 51°24' E 006°45'3 5.3
2017-Jul-16 17:00N 51°26' E 006°43'2 4.4
2017-Jul-16 16:30N 51°28' E 006°42'2 3.1
2017-Jul-16 16:00N 51°30' E 006°43'2 4.0
2017-Jul-16 15:30N 51°32' E 006°41'3 5.1
2017-Jul-16 15:00N 51°34' E 006°41'3 4.7
2017-Jul-16 14:22N 51°34' E 006°36'2 5.6
2017-Jul-16 14:00N 51°36' E 006°36'3 5.2
2017-Jul-16 13:30N 51°39' E 006°36'3 5.3
2017-Jul-16 13:00N 51°40' E 006°32'3 5.2
2017-Jul-16 12:24N 51°41' E 006°28'2 5.4
2017-Jul-16 12:00N 51°43' E 006°25'3 5.0
2017-Jul-16 11:30N 51°45' E 006°25'3 6.2
2017-Jul-16 11:00N 51°46' E 006°20'3 6.3
2017-Jul-16 10:30N 51°49' E 006°18'3 6.4
2017-Jul-16 10:00N 51°50' E 006°13'3 6.0
2017-Jul-16 09:30N 51°51' E 006°08'3 6.5
2017-Jul-16 09:00N 51°52' E 006°04'3 5.4
2017-Jul-16 08:30N 51°52' E 005°59'2 4.6
2017-Jul-16 08:00N 51°52' E 005°55'3 5.8
2017-Jul-16 07:30N 51°51' E 005°51'3 6.5
2017-Jul-16 07:00N 51°53' E 005°47'3 6.4
2017-Jul-16 06:30N 51°54' E 005°42'3 6.4
2017-Jul-16 06:00N 51°54' E 005°37'3 6.4
2017-Jul-16 05:29N 51°53' E 005°31'4 5.9
2017-Jul-16 04:45N 51°51' E 005°25'2 6.6
2017-Jul-16 04:29N 51°50' E 005°24'5 5.0
2017-Jul-16 03:34N 51°49' E 005°16'0 6.8
2017-Jul-16 03:30N 51°49' E 005°16'8 0.9
2017-Jul-15 18:55N 51°49' E 005°03'3 6.8
2017-Jul-15 18:30N 51°49' E 004°59'4 7.2
2017-Jul-15 18:00N 51°49' E 004°53'3 6.9
2017-Jul-15 17:30N 51°49' E 004°47'3 6.9
2017-Jul-15 17:00N 51°49' E 004°42'4 7.4
2017-Jul-15 16:30N 51°48' E 004°36'3 6.4
2017-Jul-15 16:00N 51°50' E 004°32'3 6.9
2017-Jul-15 15:30N 51°50' E 004°26'3 7.0
2017-Jul-15 15:00N 51°51' E 004°21'7 6.8
2017-Jul-15 14:00N 51°55' E 004°11'4 7.1
2017-Jul-15 13:30N 51°56' E 004°06'2 4.4
2017-Jul-15 13:00N 51°56' E 004°02'  

Dump ship's entire track history